createdAt,value
2019-01-05T00:01:13.385Z,8.20
2019-01-05T00:04:03.659Z,9.20
2019-01-05T00:07:00.368Z,9.10
2019-01-05T00:10:08.791Z,8.70
2019-01-05T00:12:56.955Z,9.47
2019-01-05T00:15:46.216Z,8.53
2019-01-05T00:18:38.842Z,8.10
2019-01-05T00:21:35.230Z,8.20
2019-01-05T00:24:36.439Z,8.23
2019-01-05T00:27:26.752Z,8.57
2019-01-05T00:30:20.993Z,7.23
2019-01-05T00:33:19.057Z,6.47
2019-01-05T00:36:33.936Z,7.63
2019-01-05T00:39:23.779Z,7.30
2019-01-05T00:42:32.181Z,7.60
2019-01-05T00:45:38.532Z,7.53
2019-01-05T00:48:26.824Z,6.83
2019-01-05T00:51:22.265Z,6.50
2019-01-05T00:54:09.447Z,6.63
2019-01-05T00:56:59.684Z,7.20
2019-01-05T01:00:00.924Z,5.97
2019-01-05T01:03:05.596Z,6.70
2019-01-05T01:05:53.326Z,5.50
2019-01-05T01:08:41.054Z,5.70
2019-01-05T01:11:39.653Z,5.13
2019-01-05T01:14:28.167Z,5.17
2019-01-05T01:17:26.387Z,4.30
2019-01-05T01:20:15.793Z,5.17
2019-01-05T01:23:13.288Z,5.13
2019-01-05T01:25:58.435Z,5.77
2019-01-05T01:29:06.314Z,5.43
2019-01-05T01:32:05.830Z,5.40
2019-01-05T01:35:04.971Z,4.73
2019-01-05T01:38:34.179Z,5.07
2019-01-05T01:41:27.031Z,6.23
2019-01-05T01:44:25.985Z,4.93
2019-01-05T01:47:17.118Z,4.17
2019-01-05T01:50:09.167Z,4.47
2019-01-05T01:52:58.078Z,5.27
2019-01-05T01:55:56.088Z,4.60
2019-01-05T01:59:06.490Z,4.47
2019-01-05T02:01:58.827Z,4.40
2019-01-05T02:04:44.356Z,4.80
2019-01-05T02:07:34.753Z,4.90
2019-01-05T02:10:30.448Z,6.10
2019-01-05T02:13:23.455Z,6.17
2019-01-05T02:16:18.525Z,5.40
2019-01-05T02:19:38.766Z,6.13
2019-01-05T02:23:23.934Z,5.70
2019-01-05T02:27:06.344Z,6.30
2019-01-05T02:30:50.351Z,6.30
2019-01-05T02:34:12.591Z,7.13
2019-01-05T02:37:53.088Z,5.17
2019-01-05T02:41:23.022Z,5.73
2019-01-05T02:45:01.865Z,5.67
2019-01-05T02:48:40.431Z,5.67
2019-01-05T02:52:25.364Z,6.07
2019-01-05T02:56:25.924Z,5.20
2019-01-05T03:00:08.517Z,5.50
2019-01-05T03:03:28.147Z,5.00
2019-01-05T03:06:56.455Z,4.43
2019-01-05T03:10:22.946Z,5.27
2019-01-05T03:13:45.862Z,4.87
2019-01-05T03:17:06.904Z,5.03
2019-01-05T03:20:34.659Z,5.13
2019-01-05T03:24:32.419Z,5.50
2019-01-05T03:28:05.751Z,5.30
2019-01-05T03:31:41.266Z,5.80
2019-01-05T03:35:10.426Z,5.67
2019-01-05T03:38:43.309Z,5.17
2019-01-05T03:42:06.283Z,5.30
2019-01-05T03:46:22.601Z,6.23
2019-01-05T03:49:49.137Z,5.40
2019-01-05T03:53:24.112Z,5.60
2019-01-05T03:56:44.904Z,5.50
2019-01-05T04:00:10.063Z,4.87
2019-01-05T04:03:45.656Z,4.80
2019-01-05T04:07:43.118Z,4.30
2019-01-05T04:11:15.037Z,5.13
2019-01-05T04:15:04.530Z,4.60
2019-01-05T04:18:43.301Z,4.17
2019-01-05T04:22:33.380Z,4.87
2019-01-05T04:26:06.011Z,4.00
2019-01-05T04:29:48.769Z,4.80
2019-01-05T04:33:26.941Z,4.10
2019-01-05T04:37:02.857Z,4.20
2019-01-05T04:40:42.291Z,5.17
2019-01-05T04:44:02.679Z,4.13
2019-01-05T04:47:35.645Z,4.50
2019-01-05T04:51:07.109Z,4.07
2019-01-05T04:54:39.418Z,4.13
2019-01-05T04:58:29.339Z,3.63
2019-01-05T05:01:51.225Z,3.80
2019-01-05T05:05:15.416Z,3.20
2019-01-05T05:08:34.899Z,3.40
2019-01-05T05:12:00.621Z,3.03
2019-01-05T05:15:33.745Z,3.17
2019-01-05T05:18:59.738Z,3.30
2019-01-05T05:22:41.276Z,4.10
2019-01-05T05:26:16.358Z,4.00
2019-01-05T05:29:52.310Z,3.10
2019-01-05T05:33:30.461Z,3.53
2019-01-05T05:36:55.972Z,3.90
2019-01-05T05:40:32.595Z,3.77
2019-01-05T05:44:20.262Z,3.60
2019-01-05T05:47:49.952Z,3.40
2019-01-05T05:51:04.719Z,3.63
2019-01-05T05:54:37.940Z,4.17
2019-01-05T05:58:15.714Z,6.10
2019-01-05T06:01:51.182Z,3.43
2019-01-05T06:05:27.872Z,4.50
2019-01-05T06:08:55.381Z,4.03
2019-01-05T06:12:36.247Z,3.00
2019-01-05T06:16:00.715Z,3.90
2019-01-05T06:19:43.870Z,3.73
2019-01-05T06:23:33.172Z,3.63
2019-01-05T06:27:12.141Z,3.30
2019-01-05T06:30:40.601Z,4.50
2019-01-05T06:34:15.588Z,4.30
2019-01-05T06:37:52.956Z,4.50
2019-01-05T06:41:11.819Z,3.70
2019-01-05T06:44:46.161Z,4.00
2019-01-05T06:48:24.841Z,3.20
2019-01-05T06:52:03.578Z,3.40
2019-01-05T06:55:33.760Z,2.83
2019-01-05T06:59:17.722Z,3.53
2019-01-05T07:02:47.409Z,5.20
2019-01-05T07:06:12.877Z,3.13
2019-01-05T07:09:44.423Z,4.00
2019-01-05T07:13:21.497Z,4.10
2019-01-05T07:16:44.002Z,3.13
2019-01-05T07:20:14.247Z,3.00
2019-01-05T07:23:55.113Z,3.10
2019-01-05T07:27:25.650Z,3.00
2019-01-05T07:31:09.188Z,2.93
2019-01-05T07:34:43.924Z,2.80
2019-01-05T07:38:06.214Z,2.47
2019-01-05T07:41:31.478Z,2.70
2019-01-05T07:44:36.104Z,2.10
2019-01-05T07:48:31.959Z,2.23
2019-01-05T07:51:57.785Z,2.60
2019-01-05T07:56:00.007Z,2.37
2019-01-05T07:59:48.461Z,2.30
2019-01-05T08:03:30.895Z,2.30
2019-01-05T08:06:56.964Z,2.07
2019-01-05T08:10:20.214Z,2.03
2019-01-05T08:13:42.976Z,1.90
2019-01-05T08:17:17.536Z,2.07
2019-01-05T08:21:05.138Z,1.90
2019-01-05T08:24:49.298Z,1.53
2019-01-05T08:28:28.468Z,1.83
2019-01-05T08:32:06.793Z,2.10
2019-01-05T08:35:36.223Z,1.80
2019-01-05T08:38:55.430Z,1.47
2019-01-05T08:42:05.501Z,1.93
2019-01-05T08:45:49.798Z,1.90
2019-01-05T08:49:30.268Z,1.60
2019-01-05T08:52:54.581Z,1.90
2019-01-05T08:56:32.353Z,1.30
2019-01-05T09:00:05.984Z,1.83
2019-01-05T09:03:36.941Z,1.70
2019-01-05T09:07:14.938Z,1.70
2019-01-05T09:10:52.713Z,1.60
2019-01-05T09:14:14.455Z,1.50
2019-01-05T09:17:45.544Z,1.57
2019-01-05T09:21:06.920Z,1.53
2019-01-05T09:25:05.242Z,1.20
2019-01-05T09:28:46.491Z,1.80
2019-01-05T09:32:11.646Z,1.33
2019-01-05T09:35:48.531Z,1.20
2019-01-05T09:39:15.242Z,1.23
2019-01-05T09:42:47.628Z,1.10
2019-01-05T09:46:14.518Z,1.40
2019-01-05T09:49:42.387Z,1.50
2019-01-05T09:53:23.453Z,1.93
2019-01-05T09:57:08.307Z,1.60
2019-01-05T10:00:56.305Z,1.83
2019-01-05T10:04:30.156Z,1.97
2019-01-05T10:08:00.470Z,1.60
2019-01-05T10:11:37.374Z,3.20
2019-01-05T10:15:17.345Z,1.63
2019-01-05T10:18:46.481Z,1.17
2019-01-05T10:21:58.924Z,1.20
2019-01-05T10:25:38.037Z,1.63
2019-01-05T10:29:03.346Z,1.20
2019-01-05T10:32:32.850Z,1.67
2019-01-05T10:36:06.571Z,1.70
2019-01-05T10:39:43.853Z,1.70
2019-01-05T10:43:09.408Z,1.50
2019-01-05T10:46:37.895Z,1.83
2019-01-05T10:50:08.829Z,1.30
2019-01-05T10:53:44.857Z,1.20
2019-01-05T10:57:21.487Z,1.50
2019-01-05T11:01:08.295Z,1.43
2019-01-05T11:04:42.740Z,1.50
2019-01-05T11:08:40.064Z,1.70
2019-01-05T11:12:25.327Z,0.97
2019-01-05T11:16:12.340Z,0.90
2019-01-05T11:19:46.179Z,1.03
2019-01-05T11:23:17.857Z,1.40
2019-01-05T11:26:43.416Z,1.33
2019-01-05T11:30:07.490Z,1.00
2019-01-05T11:33:45.032Z,1.03
2019-01-05T11:37:09.796Z,1.17
2019-01-05T11:40:43.711Z,1.10
2019-01-05T11:44:08.237Z,1.90
2019-01-05T11:47:33.953Z,1.27
2019-01-05T11:51:03.316Z,1.07
2019-01-05T11:54:26.036Z,1.27
2019-01-05T11:58:22.457Z,1.97
2019-01-05T12:01:46.817Z,1.80
2019-01-05T12:05:43.420Z,1.30
2019-01-05T12:09:12.377Z,2.10
2019-01-05T12:12:54.418Z,1.90
2019-01-05T12:16:15.576Z,1.33
2019-01-05T12:20:00.781Z,1.77
2019-01-05T12:23:22.195Z,1.30
2019-01-05T12:26:59.207Z,1.40
2019-01-05T12:30:39.535Z,1.20
2019-01-05T12:34:27.723Z,1.87
2019-01-05T12:37:55.459Z,1.10
2019-01-05T12:41:22.271Z,1.20
2019-01-05T12:44:51.746Z,1.73
2019-01-05T12:49:01.297Z,1.47
2019-01-05T12:52:38.916Z,1.00
2019-01-05T12:56:29.844Z,1.10
2019-01-05T12:59:50.859Z,1.17
2019-01-05T13:03:12.054Z,1.60
2019-01-05T13:06:51.222Z,1.70
2019-01-05T13:10:36.893Z,2.43
2019-01-05T13:14:00.683Z,1.60
2019-01-05T13:17:36.263Z,1.30
2019-01-05T13:21:07.637Z,3.93
2019-01-05T13:24:45.173Z,1.50
2019-01-05T13:28:34.506Z,1.43
2019-01-05T13:32:18.620Z,1.20
2019-01-05T13:35:35.351Z,1.30
2019-01-05T13:39:16.472Z,1.00
2019-01-05T13:42:53.919Z,1.13
2019-01-05T13:46:28.682Z,1.70
2019-01-05T13:49:51.293Z,1.77
2019-01-05T13:53:30.106Z,1.20
2019-01-05T13:56:28.408Z,1.60
2019-01-05T13:59:18.090Z,1.50
2019-01-05T14:02:07.735Z,2.10
2019-01-05T14:04:56.806Z,1.50
2019-01-05T14:08:02.416Z,1.67
2019-01-05T14:10:51.842Z,1.50
2019-01-05T14:13:40.818Z,1.60
2019-01-05T14:16:37.412Z,1.87
2019-01-05T14:19:31.548Z,2.40
2019-01-05T14:22:26.423Z,2.10
2019-01-05T14:25:17.304Z,1.80
2019-01-05T14:28:07.880Z,1.90
2019-01-05T14:30:56.063Z,1.63
2019-01-05T14:33:47.451Z,1.90
2019-01-05T14:36:48.598Z,1.93
2019-01-05T14:39:37.771Z,2.20
2019-01-05T14:42:27.009Z,1.90
2019-01-05T14:45:23.562Z,1.80
2019-01-05T14:48:30.556Z,2.00
2019-01-05T14:51:21.229Z,1.60
2019-01-05T14:54:09.211Z,1.73
2019-01-05T14:57:09.480Z,2.10
2019-01-05T14:59:59.048Z,1.70
2019-01-05T15:02:47.018Z,2.20
2019-01-05T15:05:44.711Z,1.87
2019-01-05T15:08:45.507Z,1.60
2019-01-05T15:11:53.499Z,2.00
2019-01-05T15:14:44.713Z,1.70
2019-01-05T15:17:41.409Z,1.70
2019-01-05T15:20:39.621Z,1.80
2019-01-05T15:23:41.400Z,2.40
2019-01-05T15:26:31.692Z,2.57
2019-01-05T15:29:41.906Z,1.90
2019-01-05T15:32:39.996Z,1.90
2019-01-05T15:35:40.591Z,1.27
2019-01-05T15:38:44.177Z,1.97
2019-01-05T15:41:43.920Z,2.20
2019-01-05T15:44:32.623Z,2.50
2019-01-05T15:47:21.964Z,1.83
2019-01-05T15:50:10.410Z,2.67
2019-01-05T15:53:17.883Z,2.00
2019-01-05T15:56:07.456Z,2.40
2019-01-05T15:58:58.788Z,3.60
2019-01-05T16:01:46.710Z,2.30
2019-01-05T16:04:35.194Z,2.03
2019-01-05T16:07:31.808Z,2.03
2019-01-05T16:10:36.311Z,3.30
2019-01-05T16:13:36.575Z,2.57
2019-01-05T16:16:26.368Z,3.73
2019-01-05T16:19:15.593Z,2.23
2019-01-05T16:22:11.701Z,2.90
2019-01-05T16:25:14.844Z,2.50
2019-01-05T16:28:09.535Z,2.60
2019-01-05T16:31:13.022Z,3.23
2019-01-05T16:34:01.087Z,3.00
2019-01-05T16:36:52.013Z,2.60
2019-01-05T16:40:00.028Z,3.20
2019-01-05T16:42:52.200Z,3.33
2019-01-05T16:45:55.613Z,3.00
2019-01-05T16:48:47.111Z,2.60
2019-01-05T16:51:42.139Z,2.90
2019-01-05T16:54:32.435Z,3.07
2019-01-05T16:57:22.211Z,2.70
2019-01-05T17:00:13.032Z,3.30
2019-01-05T17:03:16.056Z,3.77
2019-01-05T17:06:05.346Z,6.90
2019-01-05T17:08:55.113Z,3.00
2019-01-05T17:11:45.660Z,3.37
2019-01-05T17:14:35.840Z,3.30
2019-01-05T17:17:21.223Z,3.60
2019-01-05T17:20:13.146Z,3.67
2019-01-05T17:23:03.771Z,3.30
2019-01-05T17:26:04.395Z,2.90
2019-01-05T17:28:53.737Z,3.07
2019-01-05T17:31:37.359Z,2.57
2019-01-05T17:34:25.398Z,2.77
2019-01-05T17:37:27.113Z,3.60
2019-01-05T17:40:27.568Z,3.70
2019-01-05T17:43:22.635Z,3.23
2019-01-05T17:46:11.967Z,3.53
2019-01-05T17:49:05.044Z,3.23
2019-01-05T17:51:54.606Z,3.20
2019-01-05T17:54:45.561Z,3.13
2019-01-05T17:57:49.211Z,3.07
2019-01-05T18:00:40.312Z,3.40
2019-01-05T18:03:35.564Z,3.10
2019-01-05T18:06:25.774Z,3.60
2019-01-05T18:09:15.590Z,3.30
2019-01-05T18:12:22.431Z,3.17
2019-01-05T18:15:13.844Z,3.30
2019-01-05T18:18:01.863Z,3.87
2019-01-05T18:20:51.196Z,3.37
2019-01-05T18:23:39.866Z,3.60
2019-01-05T18:26:38.505Z,3.27
2019-01-05T18:29:45.335Z,3.70
2019-01-05T18:32:32.899Z,3.13
2019-01-05T18:35:21.822Z,3.10
2019-01-05T18:38:12.038Z,3.10
2019-01-05T18:41:07.616Z,3.27
2019-01-05T18:43:58.636Z,3.03
2019-01-05T18:46:47.177Z,3.40
2019-01-05T18:49:28.390Z,3.47
2019-01-05T18:52:25.014Z,3.30
2019-01-05T18:55:11.744Z,3.40
2019-01-05T18:58:00.289Z,3.53
2019-01-05T19:01:00.148Z,4.03
2019-01-05T19:03:49.511Z,3.93
2019-01-05T19:06:48.724Z,3.87
2019-01-05T19:09:39.183Z,4.43
2019-01-05T19:12:28.299Z,3.53
2019-01-05T19:15:30.810Z,5.60
2019-01-05T19:18:19.948Z,4.77
2019-01-05T19:21:09.543Z,4.30
2019-01-05T19:24:02.477Z,4.20
2019-01-05T19:26:52.821Z,4.00
2019-01-05T19:29:51.772Z,5.10
2019-01-05T19:32:41.054Z,4.20
2019-01-05T19:35:43.096Z,5.40
2019-01-05T19:38:31.335Z,6.80
2019-01-05T19:41:21.094Z,6.07
2019-01-05T19:44:10.476Z,6.47
2019-01-05T19:47:11.924Z,5.43
2019-01-05T19:50:13.067Z,8.40
2019-01-05T19:53:03.274Z,5.20
2019-01-05T19:56:08.961Z,12.97
2019-01-05T19:59:09.261Z,17.47
2019-01-05T20:02:00.868Z,13.50
2019-01-05T20:05:01.563Z,6.27
2019-01-05T20:07:54.762Z,6.60
2019-01-05T20:11:02.808Z,3.97
2019-01-05T20:14:12.668Z,4.57
2019-01-05T20:17:04.756Z,6.67
2019-01-05T20:19:52.094Z,9.67
2019-01-05T20:22:37.796Z,6.53
2019-01-05T20:25:32.973Z,5.53
2019-01-05T20:28:23.481Z,5.20
2019-01-05T20:31:15.871Z,4.10
2019-01-05T20:34:24.682Z,4.83
2019-01-05T20:37:17.436Z,6.03
2019-01-05T20:40:10.058Z,5.20
2019-01-05T20:43:05.098Z,5.67
2019-01-05T20:46:04.939Z,4.80
2019-01-05T20:48:53.766Z,10.70
2019-01-05T20:51:54.969Z,7.93
2019-01-05T20:54:45.435Z,7.07
2019-01-05T20:57:34.898Z,6.50
2019-01-05T21:00:32.612Z,6.80
2019-01-05T21:03:35.166Z,6.40
2019-01-05T21:06:29.854Z,9.03
2019-01-05T21:09:20.783Z,7.03
2019-01-05T21:12:16.209Z,6.93
2019-01-05T21:15:10.299Z,4.93
2019-01-05T21:17:57.904Z,5.40
2019-01-05T21:20:46.511Z,6.33
2019-01-05T21:23:42.892Z,6.33
2019-01-05T21:26:32.656Z,7.20
2019-01-05T21:29:26.158Z,5.93
2019-01-05T21:32:34.182Z,6.00
2019-01-05T21:35:24.319Z,5.40
2019-01-05T21:38:15.136Z,5.97
2019-01-05T21:41:04.008Z,6.00
2019-01-05T21:43:54.431Z,5.00
2019-01-05T21:47:04.389Z,5.00
2019-01-05T21:50:01.746Z,4.93
2019-01-05T21:52:55.245Z,5.13
2019-01-05T21:55:43.982Z,5.17
2019-01-05T21:58:41.704Z,4.37
2019-01-05T22:01:49.217Z,3.90
2019-01-05T22:04:39.801Z,3.97
2019-01-05T22:07:34.635Z,5.03
2019-01-05T22:10:25.522Z,5.53
2019-01-05T22:13:21.092Z,6.00
2019-01-05T22:16:17.126Z,5.33
2019-01-05T22:19:22.381Z,4.20
2019-01-05T22:22:11.549Z,5.03
2019-01-05T22:25:07.229Z,4.00
2019-01-05T22:27:57.094Z,3.63
2019-01-05T22:30:46.921Z,3.70
2019-01-05T22:33:36.146Z,4.40
2019-01-05T22:36:41.368Z,4.10
2019-01-05T22:39:37.002Z,4.13
2019-01-05T22:42:26.369Z,3.77
2019-01-05T22:45:22.562Z,3.80
2019-01-05T22:48:19.997Z,4.37
2019-01-05T22:51:09.298Z,3.60
2019-01-05T22:54:03.691Z,3.47
2019-01-05T22:56:53.110Z,3.80
2019-01-05T23:00:00.001Z,4.40
2019-01-05T23:02:49.408Z,3.33
2019-01-05T23:05:48.491Z,4.00
2019-01-05T23:08:40.824Z,3.50
2019-01-05T23:11:33.580Z,3.47
2019-01-05T23:14:23.070Z,3.40
2019-01-05T23:17:19.499Z,3.10
2019-01-05T23:20:08.534Z,3.90
2019-01-05T23:22:58.707Z,3.73
2019-01-05T23:25:47.375Z,2.50
2019-01-05T23:28:32.791Z,3.20
2019-01-05T23:31:34.183Z,2.27
2019-01-05T23:34:26.527Z,2.60
2019-01-05T23:37:14.313Z,2.40
2019-01-05T23:40:02.191Z,2.40
2019-01-05T23:42:42.226Z,2.30
2019-01-05T23:45:41.610Z,2.80
2019-01-05T23:48:33.050Z,2.10
2019-01-05T23:51:39.070Z,2.67
2019-01-05T23:54:29.666Z,2.40
2019-01-05T23:57:23.876Z,2.10
